sensor_id;sensor_type;location;lat;lon;timestamp;pressure;altitude;pressure_sealevel;temperature;humidity
83116;BME280;72996;40.206;44.498;2024-01-15T00:02:02;89204.88;;;2.41;44.48
83116;BME280;72996;40.206;44.498;2024-01-15T00:04:28;89196.16;;;2.57;44.21
83116;BME280;72996;40.206;44.498;2024-01-15T00:06:54;89185.00;;;2.56;43.58
83116;BME280;72996;40.206;44.498;2024-01-15T00:09:19;89201.16;;;2.55;43.29
83116;BME280;72996;40.206;44.498;2024-01-15T00:11:45;89184.31;;;2.56;44.23
83116;BME280;72996;40.206;44.498;2024-01-15T00:14:11;89203.34;;;2.51;43.86
83116;BME280;72996;40.206;44.498;2024-01-15T00:16:40;89206.72;;;2.46;44.10
83116;BME280;72996;40.206;44.498;2024-01-15T00:19:06;89200.94;;;2.29;44.17
83116;BME280;72996;40.206;44.498;2024-01-15T00:21:32;89200.84;;;2.16;44.47
83116;BME280;72996;40.206;44.498;2024-01-15T00:23:58;89207.47;;;2.17;44.21
83116;BME280;72996;40.206;44.498;2024-01-15T00:26:23;89205.22;;;2.26;43.36
83116;BME280;72996;40.206;44.498;2024-01-15T00:28:49;89203.34;;;2.27;43.46
83116;BME280;72996;40.206;44.498;2024-01-15T00:31:16;89191.81;;;2.17;43.63
83116;BME280;72996;40.206;44.498;2024-01-15T00:33:42;89189.88;;;2.23;43.63
83116;BME280;72996;40.206;44.498;2024-01-15T00:36:08;89197.88;;;2.25;43.08
83116;BME280;72996;40.206;44.498;2024-01-15T00:38:34;89175.13;;;2.01;43.46
83116;BME280;72996;40.206;44.498;2024-01-15T00:40:59;89194.19;;;2.15;43.29
83116;BME280;72996;40.206;44.498;2024-01-15T00:43:25;89196.16;;;2.09;44.41
83116;BME280;72996;40.206;44.498;2024-01-15T00:45:51;89210.56;;;2.15;43.45
83116;BME280;72996;40.206;44.498;2024-01-15T00:48:16;89196.59;;;2.13;43.35
83116;BME280;72996;40.206;44.498;2024-01-15T00:50:42;89194.09;;;2.02;43.04
83116;BME280;72996;40.206;44.498;2024-01-15T00:53:07;89202.19;;;1.98;43.08
83116;BME280;72996;40.206;44.498;2024-01-15T00:55:33;89195.63;;;1.86;43.78
83116;BME280;72996;40.206;44.498;2024-01-15T00:57:59;89196.78;;;1.91;43.55
83116;BME280;72996;40.206;44.498;2024-01-15T01:00:24;89196.06;;;1.90;43.39
83116;BME280;72996;40.206;44.498;2024-01-15T01:02:50;89196.50;;;1.94;43.49
83116;BME280;72996;40.206;44.498;2024-01-15T01:05:15;89201.19;;;2.01;43.68
83116;BME280;72996;40.206;44.498;2024-01-15T01:07:41;89195.59;;;1.92;43.57
83116;BME280;72996;40.206;44.498;2024-01-15T01:10:07;89177.16;;;1.84;43.43
83116;BME280;72996;40.206;44.498;2024-01-15T01:12:33;89185.81;;;1.98;43.42
83116;BME280;72996;40.206;44.498;2024-01-15T01:14:58;89195.69;;;1.81;43.58
83116;BME280;72996;40.206;44.498;2024-01-15T01:17:24;89182.47;;;1.44;44.34
83116;BME280;72996;40.206;44.498;2024-01-15T01:19:50;89191.84;;;1.17;46.22
83116;BME280;72996;40.206;44.498;2024-01-15T01:22:16;89196.19;;;1.04;45.52
83116;BME280;72996;40.206;44.498;2024-01-15T01:24:41;89198.31;;;1.00;45.58
83116;BME280;72996;40.206;44.498;2024-01-15T01:27:07;89174.63;;;1.09;45.50
83116;BME280;72996;40.206;44.498;2024-01-15T01:29:33;89180.38;;;1.37;44.40
83116;BME280;72996;40.206;44.498;2024-01-15T01:31:58;89186.69;;;1.47;45.97
83116;BME280;72996;40.206;44.498;2024-01-15T01:34:24;89180.59;;;1.39;45.27
83116;BME280;72996;40.206;44.498;2024-01-15T01:36:50;89183.41;;;1.41;44.79
83116;BME280;72996;40.206;44.498;2024-01-15T01:39:15;89179.84;;;1.44;45.00
83116;BME280;72996;40.206;44.498;2024-01-15T01:41:41;89170.94;;;1.34;45.17
83116;BME280;72996;40.206;44.498;2024-01-15T01:44:07;89180.16;;;1.35;45.62
83116;BME280;72996;40.206;44.498;2024-01-15T01:46:34;89163.47;;;1.14;45.53
83116;BME280;72996;40.206;44.498;2024-01-15T01:49:00;89176.81;;;1.40;46.10
83116;BME280;72996;40.206;44.498;2024-01-15T01:51:31;89190.50;;;1.46;46.04
83116;BME280;72996;40.206;44.498;2024-01-15T01:53:57;89188.38;;;1.44;45.39
83116;BME280;72996;40.206;44.498;2024-01-15T01:56:22;89190.75;;;1.42;45.01
83116;BME280;72996;40.206;44.498;2024-01-15T01:58:48;89166.00;;;1.25;45.25
83116;BME280;72996;40.206;44.498;2024-01-15T02:01:15;89183.50;;;1.30;45.14
83116;BME280;72996;40.206;44.498;2024-01-15T02:03:41;89180.72;;;1.17;45.03
83116;BME280;72996;40.206;44.498;2024-01-15T02:06:06;89191.59;;;1.21;45.36
83116;BME280;72996;40.206;44.498;2024-01-15T02:08:33;89182.50;;;1.33;44.87
83116;BME280;72996;40.206;44.498;2024-01-15T02:11:00;89182.97;;;1.37;44.60
83116;BME280;72996;40.206;44.498;2024-01-15T02:13:26;89188.38;;;1.44;44.49
83116;BME280;72996;40.206;44.498;2024-01-15T02:15:51;89173.91;;;1.49;44.12
83116;BME280;72996;40.206;44.498;2024-01-15T02:18:17;89178.38;;;1.54;44.56
83116;BME280;72996;40.206;44.498;2024-01-15T02:20:43;89181.19;;;1.56;43.90
83116;BME280;72996;40.206;44.498;2024-01-15T02:23:10;89182.19;;;1.47;44.42
83116;BME280;72996;40.206;44.498;2024-01-15T02:25:41;89144.81;;;1.10;44.53
83116;BME280;72996;40.206;44.498;2024-01-15T02:28:11;89165.56;;;1.21;45.60
83116;BME280;72996;40.206;44.498;2024-01-15T02:30:38;89180.63;;;1.33;45.37
83116;BME280;72996;40.206;44.498;2024-01-15T02:33:05;89182.50;;;1.33;45.06
83116;BME280;72996;40.206;44.498;2024-01-15T02:35:31;89194.56;;;1.36;44.63
83116;BME280;72996;40.206;44.498;2024-01-15T02:37:57;89181.09;;;1.32;44.66
83116;BME280;72996;40.206;44.498;2024-01-15T02:40:22;89154.31;;;1.02;44.58
83116;BME280;72996;40.206;44.498;2024-01-15T02:42:48;89151.22;;;1.03;45.05
83116;BME280;72996;40.206;44.498;2024-01-15T02:45:14;89179.75;;;1.20;45.01
83116;BME280;72996;40.206;44.498;2024-01-15T02:47:39;89162.09;;;1.07;44.44
83116;BME280;72996;40.206;44.498;2024-01-15T02:50:05;89168.00;;;1.08;43.94
83116;BME280;72996;40.206;44.498;2024-01-15T02:52:31;89156.69;;;1.00;44.67
83116;BME280;72996;40.206;44.498;2024-01-15T02:54:57;89172.75;;;1.04;44.48
83116;BME280;72996;40.206;44.498;2024-01-15T02:57:23;89166.19;;;0.92;44.35
83116;BME280;72996;40.206;44.498;2024-01-15T02:59:48;89169.03;;;0.94;44.30
83116;BME280;72996;40.206;44.498;2024-01-15T03:02:14;89178.50;;;0.91;44.03
83116;BME280;72996;40.206;44.498;2024-01-15T03:04:44;89153.09;;;0.68;44.53
83116;BME280;72996;40.206;44.498;2024-01-15T03:07:09;89174.69;;;0.98;44.31
83116;BME280;72996;40.206;44.498;2024-01-15T03:09:35;89185.50;;;1.13;43.73
83116;BME280;72996;40.206;44.498;2024-01-15T03:12:01;89166.97;;;1.22;43.65
83116;BME280;72996;40.206;44.498;2024-01-15T03:14:26;89178.75;;;1.34;43.63
83116;BME280;72996;40.206;44.498;2024-01-15T03:16:52;89153.34;;;1.05;44.18
83116;BME280;72996;40.206;44.498;2024-01-15T03:19:18;89183.31;;;1.22;44.20
83116;BME280;72996;40.206;44.498;2024-01-15T03:21:44;89192.03;;;1.25;43.86
83116;BME280;72996;40.206;44.498;2024-01-15T03:24:10;89177.72;;;1.07;44.12
83116;BME280;72996;40.206;44.498;2024-01-15T03:26:35;89199.47;;;1.10;44.67
83116;BME280;72996;40.206;44.498;2024-01-15T03:29:01;89208.69;;;1.11;44.80
83116;BME280;72996;40.206;44.498;2024-01-15T03:31:27;89193.59;;;1.04;45.08
83116;BME280;72996;40.206;44.498;2024-01-15T03:33:52;89202.59;;;1.03;44.44
83116;BME280;72996;40.206;44.498;2024-01-15T03:36:18;89198.38;;;0.89;44.72
83116;BME280;72996;40.206;44.498;2024-01-15T03:38:44;89192.72;;;0.85;44.43
83116;BME280;72996;40.206;44.498;2024-01-15T03:41:09;89220.06;;;1.08;44.28
83116;BME280;72996;40.206;44.498;2024-01-15T03:43:35;89227.81;;;1.19;44.54
83116;BME280;72996;40.206;44.498;2024-01-15T03:46:01;89222.16;;;1.15;44.25
83116;BME280;72996;40.206;44.498;2024-01-15T03:48:27;89223.53;;;1.21;44.39
83116;BME280;72996;40.206;44.498;2024-01-15T03:50:53;89241.72;;;1.27;44.15
83116;BME280;72996;40.206;44.498;2024-01-15T03:53:19;89229.50;;;1.11;44.51
83116;BME280;72996;40.206;44.498;2024-01-15T03:55:44;89238.44;;;1.26;44.08
83116;BME280;72996;40.206;44.498;2024-01-15T03:58:10;89245.56;;;1.20;44.87
83116;BME280;72996;40.206;44.498;2024-01-15T04:00:36;89253.13;;;1.24;44.44
83116;BME280;72996;40.206;44.498;2024-01-15T04:03:02;89252.19;;;1.16;45.05
83116;BME280;72996;40.206;44.498;2024-01-15T04:05:27;89255.78;;;1.13;44.69
83116;BME280;72996;40.206;44.498;2024-01-15T04:07:53;89242.34;;;0.98;44.69
83116;BME280;72996;40.206;44.498;2024-01-15T04:10:19;89271.81;;;1.22;45.09
83116;BME280;72996;40.206;44.498;2024-01-15T04:12:45;89254.06;;;1.21;44.43
83116;BME280;72996;40.206;44.498;2024-01-15T04:15:13;89265.81;;;1.33;43.99
83116;BME280;72996;40.206;44.498;2024-01-15T04:17:39;89264.84;;;1.41;44.22
83116;BME280;72996;40.206;44.498;2024-01-15T04:20:05;89256.19;;;1.28;44.78
83116;BME280;72996;40.206;44.498;2024-01-15T04:22:32;89264.72;;;1.17;44.87
83116;BME280;72996;40.206;44.498;2024-01-15T04:24:58;89266.91;;;1.08;44.26
83116;BME280;72996;40.206;44.498;2024-01-15T04:27:24;89237.88;;;0.87;44.29
83116;BME280;72996;40.206;44.498;2024-01-15T04:29:50;89270.69;;;1.07;44.89
83116;BME280;72996;40.206;44.498;2024-01-15T04:32:15;89281.81;;;1.13;44.49
83116;BME280;72996;40.206;44.498;2024-01-15T04:34:41;89257.97;;;0.98;44.77
83116;BME280;72996;40.206;44.498;2024-01-15T04:37:07;89282.88;;;1.34;44.65
83116;BME280;72996;40.206;44.498;2024-01-15T04:39:32;89282.88;;;1.34;44.51
83116;BME280;72996;40.206;44.498;2024-01-15T04:41:58;89287.63;;;1.30;44.68
83116;BME280;72996;40.206;44.498;2024-01-15T04:44:23;89283.38;;;1.27;44.24
83116;BME280;72996;40.206;44.498;2024-01-15T04:46:49;89276.28;;;1.22;44.95
83116;BME280;72996;40.206;44.498;2024-01-15T04:49:15;89260.56;;;0.92;45.34
83116;BME280;72996;40.206;44.498;2024-01-15T04:51:40;89256.50;;;1.08;44.56
83116;BME280;72996;40.206;44.498;2024-01-15T04:54:06;89288.59;;;2.08;44.00
83116;BME280;72996;40.206;44.498;2024-01-15T04:56:32;89295.19;;;2.68;43.34
83116;BME280;72996;40.206;44.498;2024-01-15T04:58:57;89287.13;;;3.14;42.51
83116;BME280;72996;40.206;44.498;2024-01-15T05:01:23;89302.34;;;3.71;41.24
83116;BME280;72996;40.206;44.498;2024-01-15T05:03:48;89273.53;;;3.95;41.52
83116;BME280;72996;40.206;44.498;2024-01-15T05:06:14;89283.25;;;4.44;41.01
83116;BME280;72996;40.206;44.498;2024-01-15T05:08:41;89289.97;;;4.97;39.63
83116;BME280;72996;40.206;44.498;2024-01-15T05:11:06;89299.22;;;5.37;39.33
83116;BME280;72996;40.206;44.498;2024-01-15T05:13:32;89303.03;;;5.49;38.31
83116;BME280;72996;40.206;44.498;2024-01-15T05:15:58;89301.72;;;5.69;37.79
83116;BME280;72996;40.206;44.498;2024-01-15T05:18:23;89312.53;;;6.12;39.31
83116;BME280;72996;40.206;44.498;2024-01-15T05:20:49;89323.22;;;6.68;37.55
83116;BME280;72996;40.206;44.498;2024-01-15T05:23:15;89322.75;;;7.18;37.94
83116;BME280;72996;40.206;44.498;2024-01-15T05:25:40;89314.47;;;7.42;36.86
83116;BME280;72996;40.206;44.498;2024-01-15T05:28:06;89336.31;;;7.93;36.37
83116;BME280;72996;40.206;44.498;2024-01-15T05:30:32;89338.69;;;8.19;35.95
83116;BME280;72996;40.206;44.498;2024-01-15T05:32:57;89337.50;;;7.84;34.51
83116;BME280;72996;40.206;44.498;2024-01-15T05:35:25;89342.25;;;6.61;35.36
83116;BME280;72996;40.206;44.498;2024-01-15T05:37:51;89360.41;;;5.66;37.15
83116;BME280;72996;40.206;44.498;2024-01-15T05:40:16;89326.28;;;4.75;37.91
83116;BME280;72996;40.206;44.498;2024-01-15T05:42:42;89370.88;;;4.38;38.08
83116;BME280;72996;40.206;44.498;2024-01-15T05:45:08;89358.81;;;3.98;39.36
83116;BME280;72996;40.206;44.498;2024-01-15T05:47:34;89351.88;;;3.63;39.60
83116;BME280;72996;40.206;44.498;2024-01-15T05:50:00;89375.81;;;3.67;39.71
83116;BME280;72996;40.206;44.498;2024-01-15T05:52:26;89382.50;;;3.63;39.25
83116;BME280;72996;40.206;44.498;2024-01-15T05:54:52;89393.72;;;3.58;39.68
83116;BME280;72996;40.206;44.498;2024-01-15T05:57:18;89388.78;;;3.54;40.18
83116;BME280;72996;40.206;44.498;2024-01-15T05:59:44;89386.75;;;3.47;40.00
83116;BME280;72996;40.206;44.498;2024-01-15T06:02:10;89381.34;;;3.40;40.13
83116;BME280;72996;40.206;44.498;2024-01-15T06:04:36;89387.94;;;3.46;39.85
83116;BME280;72996;40.206;44.498;2024-01-15T06:07:02;89380.22;;;3.35;40.04
83116;BME280;72996;40.206;44.498;2024-01-15T06:09:27;89388.09;;;3.30;40.34
83116;BME280;72996;40.206;44.498;2024-01-15T06:11:53;89391.47;;;3.25;40.35
83116;BME280;72996;40.206;44.498;2024-01-15T06:14:19;89378.38;;;3.30;40.46
83116;BME280;72996;40.206;44.498;2024-01-15T06:16:45;89387.78;;;3.39;40.62
83116;BME280;72996;40.206;44.498;2024-01-15T06:19:10;89393.66;;;3.45;40.63
83116;BME280;72996;40.206;44.498;2024-01-15T06:21:36;89399.81;;;3.47;40.57
83116;BME280;72996;40.206;44.498;2024-01-15T06:24:02;89382.88;;;3.30;41.64
83116;BME280;72996;40.206;44.498;2024-01-15T06:26:27;89402.25;;;3.40;42.14
83116;BME280;72996;40.206;44.498;2024-01-15T06:28:53;89413.56;;;3.48;41.76
83116;BME280;72996;40.206;44.498;2024-01-15T06:31:19;89411.97;;;3.39;41.93
83116;BME280;72996;40.206;44.498;2024-01-15T06:33:44;89407.53;;;3.10;41.60
83116;BME280;72996;40.206;44.498;2024-01-15T06:36:13;89412.69;;;2.92;42.88
83116;BME280;72996;40.206;44.498;2024-01-15T06:38:39;89416.06;;;2.81;42.76
83116;BME280;72996;40.206;44.498;2024-01-15T06:41:05;89394.34;;;2.68;42.96
83116;BME280;72996;40.206;44.498;2024-01-15T06:43:31;89404.59;;;2.90;42.51
83116;BME280;72996;40.206;44.498;2024-01-15T06:45:56;89422.13;;;2.95;42.75
83116;BME280;72996;40.206;44.498;2024-01-15T06:48:22;89401.13;;;2.82;42.86
83116;BME280;72996;40.206;44.498;2024-01-15T06:50:48;89408.78;;;3.04;42.97
83116;BME280;72996;40.206;44.498;2024-01-15T06:53:13;89412.66;;;3.88;42.57
83116;BME280;72996;40.206;44.498;2024-01-15T06:55:39;89406.69;;;4.61;41.95
83116;BME280;72996;40.206;44.498;2024-01-15T06:58:05;89400.88;;;5.00;41.04
83116;BME280;72996;40.206;44.498;2024-01-15T07:00:30;89395.69;;;5.52;40.73
83116;BME280;72996;40.206;44.498;2024-01-15T07:02:56;89397.09;;;6.18;39.92
83116;BME280;72996;40.206;44.498;2024-01-15T07:05:23;89377.66;;;6.47;38.57
83116;BME280;72996;40.206;44.498;2024-01-15T07:07:49;89395.22;;;6.72;38.20
83116;BME280;72996;40.206;44.498;2024-01-15T07:10:15;89399.59;;;7.31;38.89
83116;BME280;72996;40.206;44.498;2024-01-15T07:12:44;89392.97;;;7.86;37.21
83116;BME280;72996;40.206;44.498;2024-01-15T07:15:10;89389.66;;;8.79;37.67
83116;BME280;72996;40.206;44.498;2024-01-15T07:17:36;89393.56;;;9.46;35.81
83116;BME280;72996;40.206;44.498;2024-01-15T07:20:06;89375.81;;;9.69;35.49
83116;BME280;72996;40.206;44.498;2024-01-15T07:22:33;89398.94;;;10.23;34.86
83116;BME280;72996;40.206;44.498;2024-01-15T07:24:59;89390.31;;;10.30;34.31
83116;BME280;72996;40.206;44.498;2024-01-15T07:27:24;89409.59;;;10.94;33.82
83116;BME280;72996;40.206;44.498;2024-01-15T07:29:50;89405.66;;;11.35;33.59
83116;BME280;72996;40.206;44.498;2024-01-15T07:32:16;89410.25;;;11.02;33.00
83116;BME280;72996;40.206;44.498;2024-01-15T07:34:42;89395.47;;;9.90;33.65
83116;BME280;72996;40.206;44.498;2024-01-15T07:37:07;89405.16;;;8.98;34.24
83116;BME280;72996;40.206;44.498;2024-01-15T07:39:33;89416.69;;;8.80;35.30
83116;BME280;72996;40.206;44.498;2024-01-15T07:42:00;89413.44;;;9.17;34.57
83116;BME280;72996;40.206;44.498;2024-01-15T07:44:26;89414.16;;;9.70;35.22
83116;BME280;72996;40.206;44.498;2024-01-15T07:46:51;89403.34;;;10.20;34.18
83116;BME280;72996;40.206;44.498;2024-01-15T07:49:17;89399.09;;;10.79;33.95
83116;BME280;72996;40.206;44.498;2024-01-15T07:51:43;89396.22;;;11.49;33.94
83116;BME280;72996;40.206;44.498;2024-01-15T07:54:09;89377.47;;;11.96;32.10
83116;BME280;72996;40.206;44.498;2024-01-15T07:59:21;89374.06;;;11.37;32.14
83116;BME280;72996;40.206;44.498;2024-01-15T08:01:46;89375.81;;;11.66;31.22
83116;BME280;72996;40.206;44.498;2024-01-15T08:04:12;89376.38;;;11.08;31.50
83116;BME280;72996;40.206;44.498;2024-01-15T08:06:39;89370.78;;;10.18;33.05
83116;BME280;72996;40.206;44.498;2024-01-15T08:09:05;89373.81;;;10.54;33.95
83116;BME280;72996;40.206;44.498;2024-01-15T08:11:31;89355.56;;;10.41;33.72
83116;BME280;72996;40.206;44.498;2024-01-15T08:13:56;89348.31;;;9.87;33.68
83116;BME280;72996;40.206;44.498;2024-01-15T08:16:22;89367.03;;;9.14;34.85
83116;BME280;72996;40.206;44.498;2024-01-15T08:18:49;89378.91;;;8.70;34.98
83116;BME280;72996;40.206;44.498;2024-01-15T08:21:15;89379.22;;;8.59;36.00
83116;BME280;72996;40.206;44.498;2024-01-15T08:23:41;89365.25;;;9.09;35.68
83116;BME280;72996;40.206;44.498;2024-01-15T08:26:07;89332.34;;;9.62;34.91
83116;BME280;72996;40.206;44.498;2024-01-15T08:28:34;89369.09;;;9.83;34.82
83116;BME280;72996;40.206;44.498;2024-01-15T08:31:00;89359.22;;;10.06;34.14
83116;BME280;72996;40.206;44.498;2024-01-15T08:33:25;89353.19;;;10.13;34.08
83116;BME280;72996;40.206;44.498;2024-01-15T08:35:51;89355.00;;;9.88;33.96
83116;BME280;72996;40.206;44.498;2024-01-15T08:38:17;89359.94;;;9.91;33.88
83116;BME280;72996;40.206;44.498;2024-01-15T08:40:42;89356.19;;;10.17;34.75
83116;BME280;72996;40.206;44.498;2024-01-15T08:43:08;89362.13;;;10.72;33.87
83116;BME280;72996;40.206;44.498;2024-01-15T08:45:33;89357.63;;;11.14;33.44
83116;BME280;72996;40.206;44.498;2024-01-15T08:47:59;89358.66;;;10.62;32.05
83116;BME280;72996;40.206;44.498;2024-01-15T08:50:26;89358.72;;;10.47;33.86
83116;BME280;72996;40.206;44.498;2024-01-15T08:52:52;89348.44;;;10.58;33.95
83116;BME280;72996;40.206;44.498;2024-01-15T08:55:17;89353.75;;;11.15;33.58
83116;BME280;72996;40.206;44.498;2024-01-15T08:57:43;89347.16;;;11.89;32.66
83116;BME280;72996;40.206;44.498;2024-01-15T09:00:09;89342.81;;;12.18;31.97
83116;BME280;72996;40.206;44.498;2024-01-15T09:02:35;89341.72;;;12.04;31.91
83116;BME280;72996;40.206;44.498;2024-01-15T09:05:01;89335.25;;;11.81;31.86
83116;BME280;72996;40.206;44.498;2024-01-15T09:07:29;89346.75;;;11.59;32.10
83116;BME280;72996;40.206;44.498;2024-01-15T09:09:55;89320.59;;;11.63;32.00
83116;BME280;72996;40.206;44.498;2024-01-15T09:12:21;89333.41;;;11.49;31.64
83116;BME280;72996;40.206;44.498;2024-01-15T09:14:47;89332.81;;;11.34;31.74
83116;BME280;72996;40.206;44.498;2024-01-15T09:17:13;89326.50;;;11.29;32.63
83116;BME280;72996;40.206;44.498;2024-01-15T09:19:38;89317.59;;;11.42;31.99
83116;BME280;72996;40.206;44.498;2024-01-15T09:22:05;89319.66;;;11.68;31.22
83116;BME280;72996;40.206;44.498;2024-01-15T09:24:31;89322.56;;;11.96;32.63
83116;BME280;72996;40.206;44.498;2024-01-15T09:26:56;89323.53;;;12.52;31.76
83116;BME280;72996;40.206;44.498;2024-01-15T09:29:22;89318.94;;;12.96;31.13
83116;BME280;72996;40.206;44.498;2024-01-15T09:31:49;89312.84;;;13.12;30.57
83116;BME280;72996;40.206;44.498;2024-01-15T09:34:16;89294.13;;;12.84;30.21
83116;BME280;72996;40.206;44.498;2024-01-15T09:36:42;89311.56;;;12.34;30.51
83116;BME280;72996;40.206;44.498;2024-01-15T09:39:08;89311.81;;;11.94;30.88
83116;BME280;72996;40.206;44.498;2024-01-15T09:41:35;89307.03;;;11.59;31.21
83116;BME280;72996;40.206;44.498;2024-01-15T09:44:03;89300.22;;;11.48;31.51
83116;BME280;72996;40.206;44.498;2024-01-15T09:46:31;89302.31;;;11.50;31.27
83116;BME280;72996;40.206;44.498;2024-01-15T09:48:57;89285.50;;;11.38;31.48
83116;BME280;72996;40.206;44.498;2024-01-15T09:51:24;89271.41;;;11.11;32.15
83116;BME280;72996;40.206;44.498;2024-01-15T09:53:50;89294.72;;;11.54;32.06
83116;BME280;72996;40.206;44.498;2024-01-15T09:56:16;89294.13;;;11.80;30.54
83116;BME280;72996;40.206;44.498;2024-01-15T09:58:42;89284.75;;;12.13;31.83
83116;BME280;72996;40.206;44.498;2024-01-15T10:01:08;89293.41;;;12.57;31.03
83116;BME280;72996;40.206;44.498;2024-01-15T10:03:34;89257.66;;;12.05;30.87
83116;BME280;72996;40.206;44.498;2024-01-15T10:06:00;89284.41;;;11.82;30.65
83116;BME280;72996;40.206;44.498;2024-01-15T10:08:28;89296.59;;;11.19;31.21
83116;BME280;72996;40.206;44.498;2024-01-15T10:10:53;89277.97;;;10.85;32.32
83116;BME280;72996;40.206;44.498;2024-01-15T10:13:19;89293.94;;;10.70;32.42
83116;BME280;72996;40.206;44.498;2024-01-15T10:15:46;89291.41;;;10.48;32.20
83116;BME280;72996;40.206;44.498;2024-01-15T10:18:15;89304.53;;;10.31;33.04
83116;BME280;72996;40.206;44.498;2024-01-15T10:20:40;89297.59;;;11.24;33.77
83116;BME280;72996;40.206;44.498;2024-01-15T10:23:08;89305.50;;;12.24;32.06
83116;BME280;72996;40.206;44.498;2024-01-15T10:25:35;89274.22;;;12.66;31.33
83116;BME280;72996;40.206;44.498;2024-01-15T10:28:02;89298.91;;;12.95;30.90
83116;BME280;72996;40.206;44.498;2024-01-15T10:30:28;89300.56;;;12.64;30.28
83116;BME280;72996;40.206;44.498;2024-01-15T10:33:01;89305.66;;;11.92;30.14
83116;BME280;72996;40.206;44.498;2024-01-15T10:35:28;89310.88;;;11.41;30.86
83116;BME280;72996;40.206;44.498;2024-01-15T10:37:54;89316.72;;;11.15;31.91
83116;BME280;72996;40.206;44.498;2024-01-15T10:40:20;89313.78;;;10.79;31.79
83116;BME280;72996;40.206;44.498;2024-01-15T10:42:46;89315.25;;;10.33;32.46
83116;BME280;72996;40.206;44.498;2024-01-15T10:45:13;89316.06;;;10.03;32.69
83116;BME280;72996;40.206;44.498;2024-01-15T10:47:40;89305.34;;;10.01;32.76
83116;BME280;72996;40.206;44.498;2024-01-15T10:50:07;89311.00;;;9.83;32.46
83116;BME280;72996;40.206;44.498;2024-01-15T10:52:37;89310.16;;;9.80;33.18
83116;BME280;72996;40.206;44.498;2024-01-15T10:55:03;89302.06;;;9.78;33.83
83116;BME280;72996;40.206;44.498;2024-01-15T10:57:30;89301.50;;;9.95;32.79
83116;BME280;72996;40.206;44.498;2024-01-15T10:59:56;89312.03;;;9.95;32.87
83116;BME280;72996;40.206;44.498;2024-01-15T11:02:22;89311.19;;;9.92;33.14
83116;BME280;72996;40.206;44.498;2024-01-15T11:04:48;89312.84;;;9.58;32.30
83116;BME280;72996;40.206;44.498;2024-01-15T11:07:14;89320.28;;;9.37;33.34
83116;BME280;72996;40.206;44.498;2024-01-15T11:09:39;89321.31;;;9.41;33.38
83116;BME280;72996;40.206;44.498;2024-01-15T11:12:13;89315.66;;;9.52;32.92
83116;BME280;72996;40.206;44.498;2024-01-15T11:14:40;89317.53;;;9.74;32.59
83116;BME280;72996;40.206;44.498;2024-01-15T11:17:09;89327.19;;;9.87;32.85
83116;BME280;72996;40.206;44.498;2024-01-15T11:19:53;89320.91;;;9.75;31.61
83116;BME280;72996;40.206;44.498;2024-01-15T11:25:22;89320.94;;;9.60;32.38
83116;BME280;72996;40.206;44.498;2024-01-15T11:27:50;89327.97;;;9.50;32.46
83116;BME280;72996;40.206;44.498;2024-01-15T11:30:17;89325.00;;;9.31;32.39
83116;BME280;72996;40.206;44.498;2024-01-15T11:32:43;89326.59;;;9.19;33.33
83116;BME280;72996;40.206;44.498;2024-01-15T11:35:09;89336.09;;;9.07;33.91
83116;BME280;72996;40.206;44.498;2024-01-15T11:43:05;89334.63;;;9.66;33.50
83116;BME280;72996;40.206;44.498;2024-01-15T11:45:31;89340.28;;;9.55;32.27
83116;BME280;72996;40.206;44.498;2024-01-15T11:48:14;89345.72;;;9.57;33.19
83116;BME280;72996;40.206;44.498;2024-01-15T11:50:47;89348.38;;;9.49;32.62
83116;BME280;72996;40.206;44.498;2024-01-15T11:55:45;89356.13;;;9.32;32.75
83116;BME280;72996;40.206;44.498;2024-01-15T11:58:11;89349.59;;;9.11;33.46
83116;BME280;72996;40.206;44.498;2024-01-15T12:00:44;89356.63;;;9.01;34.14
83116;BME280;72996;40.206;44.498;2024-01-15T12:03:13;89365.94;;;8.87;34.42
83116;BME280;72996;40.206;44.498;2024-01-15T12:05:39;89367.69;;;8.84;34.04
83116;BME280;72996;40.206;44.498;2024-01-15T12:08:07;89366.28;;;8.76;33.92
83116;BME280;72996;40.206;44.498;2024-01-15T12:10:39;89370.47;;;8.64;33.55
83116;BME280;72996;40.206;44.498;2024-01-15T12:13:14;89367.59;;;8.47;34.80
83116;BME280;72996;40.206;44.498;2024-01-15T12:15:41;89369.00;;;8.40;34.55
83116;BME280;72996;40.206;44.498;2024-01-15T12:18:18;89383.75;;;8.43;34.77
83116;BME280;72996;40.206;44.498;2024-01-15T12:20:45;89394.63;;;8.40;34.82
83116;BME280;72996;40.206;44.498;2024-01-15T12:23:14;89392.66;;;8.33;34.31
83116;BME280;72996;40.206;44.498;2024-01-15T12:25:39;89389.31;;;8.25;34.79
83116;BME280;72996;40.206;44.498;2024-01-15T12:28:06;89392.72;;;8.12;34.51
83116;BME280;72996;40.206;44.498;2024-01-15T12:30:33;89390.63;;;8.11;34.54
83116;BME280;72996;40.206;44.498;2024-01-15T12:33:03;89406.03;;;8.07;34.86
83116;BME280;72996;40.206;44.498;2024-01-15T12:35:29;89395.00;;;7.80;34.71
83116;BME280;72996;40.206;44.498;2024-01-15T12:37:55;89404.47;;;7.76;34.67
83116;BME280;72996;40.206;44.498;2024-01-15T12:40:22;89408.78;;;7.94;34.48
83116;BME280;72996;40.206;44.498;2024-01-15T12:42:49;89407.44;;;8.08;34.35
83116;BME280;72996;40.206;44.498;2024-01-15T12:45:14;89409.56;;;8.09;34.68
83116;BME280;72996;40.206;44.498;2024-01-15T12:47:41;89415.53;;;7.82;34.52
83116;BME280;72996;40.206;44.498;2024-01-15T12:50:11;89409.34;;;7.72;35.08
83116;BME280;72996;40.206;44.498;2024-01-15T12:52:39;89393.84;;;7.61;34.97
83116;BME280;72996;40.206;44.498;2024-01-15T12:55:07;89413.34;;;7.65;35.50
83116;BME280;72996;40.206;44.498;2024-01-15T12:57:34;89413.09;;;7.56;35.54
83116;BME280;72996;40.206;44.498;2024-01-15T13:00:00;89423.50;;;7.41;35.29
83116;BME280;72996;40.206;44.498;2024-01-15T13:02:26;89415.31;;;7.24;35.82
83116;BME280;72996;40.206;44.498;2024-01-15T13:04:52;89399.22;;;7.07;36.48
83116;BME280;72996;40.206;44.498;2024-01-15T13:07:19;89417.50;;;7.12;35.78